首页
METAR-TAF:

METAR-TAF

机场 :

亞歷山德魯波利斯德謨克利特國際機場

亞歷山德魯波利斯, 希腊

纬度: 40-51N, 经度: 025-55E, 海拔: 7米

当前天气观测

该预报发布于24分钟前的13:50 UTC
风速10节,风向东转东南
温度 16°C
湿度 63%
气压 1010 hPa
能见度10公里或以上
少量云层高于3000英尺

METAR: LGAL 261350Z 11010KT 9999 FEW030 16/09 Q1010

时间: 16:14 (14:14 UTC)

预报

该预报发布于3小时和14分钟前的11:00 UTC
预报有效从26日的 12点(UTC)到 26日的 21点(UTC)
风速10节,风向东转东北
能见度10公里或以上
少量云层高于2500英尺
散云层高于6000英尺

TAF: LGAL 261100Z 2612/2621 06010KT 9999 FEW025 SCT060

超过4000个机场的气象观测和天气预报(METAR&TAF报告)。

可查询的气象台以黄色和红色小点在地图上表示。

将鼠标移到小点上方,可查看气象台名称。

然后点击查看天气观测和预报。

如需切换地图:点击带黑十字的绿色按钮放大地图;点击带横线的绿色按钮缩小地图;或者点击绿色箭头查看邻近地区的地图。


METAR-TAF: